sensor_id;sensor_type;location;lat;lon;timestamp;temperature;humidity
39493;DHT22;25176;51.060;3.720;2022-12-29T00:01:48;11.40;99.90
39493;DHT22;25176;51.060;3.720;2022-12-29T00:04:14;11.50;99.90
39493;DHT22;25176;51.060;3.720;2022-12-29T00:06:40;11.50;99.90
39493;DHT22;25176;51.060;3.720;2022-12-29T00:09:06;11.50;99.90
39493;DHT22;25176;51.060;3.720;2022-12-29T00:11:31;11.50;99.90
39493;DHT22;25176;51.060;3.720;2022-12-29T00:13:57;11.60;99.90
39493;DHT22;25176;51.060;3.720;2022-12-29T00:16:42;11.60;99.90
39493;DHT22;25176;51.060;3.720;2022-12-29T00:19:08;11.60;99.90
39493;DHT22;25176;51.060;3.720;2022-12-29T00:21:54;11.70;99.90
39493;DHT22;25176;51.060;3.720;2022-12-29T00:24:38;11.70;99.90
39493;DHT22;25176;51.060;3.720;2022-12-29T00:27:22;11.70;99.90
39493;DHT22;25176;51.060;3.720;2022-12-29T00:30:11;11.70;99.90
39493;DHT22;25176;51.060;3.720;2022-12-29T00:32:55;11.70;99.90
39493;DHT22;25176;51.060;3.720;2022-12-29T00:35:42;11.80;99.90
39493;DHT22;25176;51.060;3.720;2022-12-29T00:38:10;11.70;99.90
39493;DHT22;25176;51.060;3.720;2022-12-29T00:41:02;11.70;99.90
39493;DHT22;25176;51.060;3.720;2022-12-29T00:43:46;11.70;99.90
39493;DHT22;25176;51.060;3.720;2022-12-29T00:46:30;11.80;99.90
39493;DHT22;25176;51.060;3.720;2022-12-29T00:48:56;11.80;99.90
39493;DHT22;25176;51.060;3.720;2022-12-29T00:51:40;11.70;99.90
39493;DHT22;25176;51.060;3.720;2022-12-29T00:54:06;11.70;99.90
39493;DHT22;25176;51.060;3.720;2022-12-29T00:56:31;11.80;99.90
39493;DHT22;25176;51.060;3.720;2022-12-29T00:59:14;11.80;99.90
39493;DHT22;25176;51.060;3.720;2022-12-29T01:01:40;11.80;99.90
39493;DHT22;25176;51.060;3.720;2022-12-29T01:04:06;11.80;99.90
39493;DHT22;25176;51.060;3.720;2022-12-29T01:06:32;11.80;99.90
39493;DHT22;25176;51.060;3.720;2022-12-29T01:08:58;11.80;99.90
39493;DHT22;25176;51.060;3.720;2022-12-29T01:11:42;11.80;99.90
39493;DHT22;25176;51.060;3.720;2022-12-29T01:14:07;11.80;99.90
39493;DHT22;25176;51.060;3.720;2022-12-29T01:16:33;11.90;99.90
39493;DHT22;25176;51.060;3.720;2022-12-29T01:18:58;11.90;99.90
39493;DHT22;25176;51.060;3.720;2022-12-29T01:21:24;11.90;99.90
39493;DHT22;25176;51.060;3.720;2022-12-29T01:23:50;11.90;99.90
39493;DHT22;25176;51.060;3.720;2022-12-29T01:26:16;11.90;99.90
39493;DHT22;25176;51.060;3.720;2022-12-29T01:28:41;11.90;99.90
39493;DHT22;25176;51.060;3.720;2022-12-29T01:31:08;11.90;99.90
39493;DHT22;25176;51.060;3.720;2022-12-29T01:33:33;11.90;99.90
39493;DHT22;25176;51.060;3.720;2022-12-29T01:36:02;11.90;99.90
39493;DHT22;25176;51.060;3.720;2022-12-29T01:38:28;11.90;99.90
39493;DHT22;25176;51.060;3.720;2022-12-29T01:40:53;11.90;99.90
39493;DHT22;25176;51.060;3.720;2022-12-29T01:43:19;11.90;99.90
39493;DHT22;25176;51.060;3.720;2022-12-29T01:45:48;11.90;99.90
39493;DHT22;25176;51.060;3.720;2022-12-29T01:48:14;11.90;99.90
39493;DHT22;25176;51.060;3.720;2022-12-29T01:50:45;11.80;99.90
39493;DHT22;25176;51.060;3.720;2022-12-29T01:53:19;11.80;99.90
39493;DHT22;25176;51.060;3.720;2022-12-29T01:55:50;11.80;99.90
39493;DHT22;25176;51.060;3.720;2022-12-29T01:58:18;11.80;99.90
39493;DHT22;25176;51.060;3.720;2022-12-29T02:00:44;11.70;99.90
39493;DHT22;25176;51.060;3.720;2022-12-29T02:03:10;11.70;99.90
39493;DHT22;25176;51.060;3.720;2022-12-29T02:08:01;11.70;99.90
39493;DHT22;25176;51.060;3.720;2022-12-29T02:10:27;11.70;99.90
39493;DHT22;25176;51.060;3.720;2022-12-29T02:12:55;11.70;99.90
39493;DHT22;25176;51.060;3.720;2022-12-29T02:15:22;11.70;99.90
39493;DHT22;25176;51.060;3.720;2022-12-29T02:17:55;11.60;99.90
39493;DHT22;25176;51.060;3.720;2022-12-29T02:28:22;11.60;99.90
39493;DHT22;25176;51.060;3.720;2022-12-29T02:30:57;11.60;99.90
39493;DHT22;25176;51.060;3.720;2022-12-29T02:36:13;11.60;99.90
39493;DHT22;25176;51.060;3.720;2022-12-29T02:38:49;11.70;99.90
39493;DHT22;25176;51.060;3.720;2022-12-29T02:41:19;11.60;99.90
39493;DHT22;25176;51.060;3.720;2022-12-29T02:46:49;11.70;99.90
39493;DHT22;25176;51.060;3.720;2022-12-29T02:49:25;11.60;99.90
39493;DHT22;25176;51.060;3.720;2022-12-29T02:54:26;11.60;99.90
39493;DHT22;25176;51.060;3.720;2022-12-29T02:57:14;11.60;99.90
39493;DHT22;25176;51.060;3.720;2022-12-29T02:59:41;11.60;99.90
39493;DHT22;25176;51.060;3.720;2022-12-29T03:15:33;11.60;99.90
39493;DHT22;25176;51.060;3.720;2022-12-29T03:20:52;11.60;99.90
39493;DHT22;25176;51.060;3.720;2022-12-29T03:23:18;11.60;99.90
39493;DHT22;25176;51.060;3.720;2022-12-29T03:25:48;11.50;99.90
39493;DHT22;25176;51.060;3.720;2022-12-29T03:28:37;11.40;99.90
39493;DHT22;25176;51.060;3.720;2022-12-29T03:31:01;11.40;99.90
39493;DHT22;25176;51.060;3.720;2022-12-29T03:33:28;11.40;99.90
39493;DHT22;25176;51.060;3.720;2022-12-29T03:35:57;11.30;99.90
39493;DHT22;25176;51.060;3.720;2022-12-29T03:38:25;11.30;99.90
39493;DHT22;25176;51.060;3.720;2022-12-29T03:40:55;11.20;99.90
39493;DHT22;25176;51.060;3.720;2022-12-29T03:43:21;11.30;99.90
39493;DHT22;25176;51.060;3.720;2022-12-29T03:45:47;11.40;99.90
39493;DHT22;25176;51.060;3.720;2022-12-29T03:48:12;11.30;99.90
39493;DHT22;25176;51.060;3.720;2022-12-29T03:50:38;11.30;99.90
39493;DHT22;25176;51.060;3.720;2022-12-29T03:53:03;11.30;99.90
39493;DHT22;25176;51.060;3.720;2022-12-29T03:55:29;11.30;99.90
39493;DHT22;25176;51.060;3.720;2022-12-29T03:57:54;11.20;99.90
39493;DHT22;25176;51.060;3.720;2022-12-29T04:00:20;11.20;99.90
39493;DHT22;25176;51.060;3.720;2022-12-29T04:02:46;11.20;99.90
39493;DHT22;25176;51.060;3.720;2022-12-29T04:05:11;11.30;99.90
39493;DHT22;25176;51.060;3.720;2022-12-29T04:07:37;11.30;99.90
39493;DHT22;25176;51.060;3.720;2022-12-29T04:10:03;11.30;99.90
39493;DHT22;25176;51.060;3.720;2022-12-29T04:12:28;11.30;99.90
39493;DHT22;25176;51.060;3.720;2022-12-29T04:14:54;11.30;99.90
39493;DHT22;25176;51.060;3.720;2022-12-29T04:17:19;11.30;99.90
39493;DHT22;25176;51.060;3.720;2022-12-29T04:19:45;11.30;99.90
39493;DHT22;25176;51.060;3.720;2022-12-29T04:22:10;11.40;99.90
39493;DHT22;25176;51.060;3.720;2022-12-29T04:24:37;11.30;99.90
39493;DHT22;25176;51.060;3.720;2022-12-29T04:27:02;11.40;99.90
39493;DHT22;25176;51.060;3.720;2022-12-29T04:29:28;11.40;99.90
39493;DHT22;25176;51.060;3.720;2022-12-29T04:31:53;11.30;99.90
39493;DHT22;25176;51.060;3.720;2022-12-29T04:34:19;11.30;99.90
39493;DHT22;25176;51.060;3.720;2022-12-29T04:36:44;11.20;99.90
39493;DHT22;25176;51.060;3.720;2022-12-29T04:39:10;11.20;99.90
39493;DHT22;25176;51.060;3.720;2022-12-29T04:41:35;11.20;99.90
39493;DHT22;25176;51.060;3.720;2022-12-29T04:44:00;11.10;99.90
39493;DHT22;25176;51.060;3.720;2022-12-29T04:46:26;11.10;99.90
39493;DHT22;25176;51.060;3.720;2022-12-29T04:48:51;11.10;99.90
39493;DHT22;25176;51.060;3.720;2022-12-29T04:51:17;11.10;99.90
39493;DHT22;25176;51.060;3.720;2022-12-29T04:53:42;11.10;99.90
39493;DHT22;25176;51.060;3.720;2022-12-29T04:56:08;11.20;99.90
39493;DHT22;25176;51.060;3.720;2022-12-29T04:58:34;11.30;99.90
39493;DHT22;25176;51.060;3.720;2022-12-29T05:01:00;11.40;99.90
39493;DHT22;25176;51.060;3.720;2022-12-29T05:03:25;11.50;99.90
39493;DHT22;25176;51.060;3.720;2022-12-29T05:05:53;11.60;99.90
39493;DHT22;25176;51.060;3.720;2022-12-29T05:08:19;11.50;99.90
39493;DHT22;25176;51.060;3.720;2022-12-29T05:10:45;11.30;99.90
39493;DHT22;25176;51.060;3.720;2022-12-29T05:13:10;11.30;99.90
39493;DHT22;25176;51.060;3.720;2022-12-29T05:15:36;11.20;99.90
39493;DHT22;25176;51.060;3.720;2022-12-29T05:18:01;11.20;99.90
39493;DHT22;25176;51.060;3.720;2022-12-29T05:20:27;11.20;99.90
39493;DHT22;25176;51.060;3.720;2022-12-29T05:22:52;11.20;99.90
39493;DHT22;25176;51.060;3.720;2022-12-29T05:25:18;11.10;99.90
39493;DHT22;25176;51.060;3.720;2022-12-29T05:27:43;11.10;99.90
39493;DHT22;25176;51.060;3.720;2022-12-29T05:30:09;11.10;99.90
39493;DHT22;25176;51.060;3.720;2022-12-29T05:32:34;11.10;99.90
39493;DHT22;25176;51.060;3.720;2022-12-29T05:35:00;11.10;99.90
39493;DHT22;25176;51.060;3.720;2022-12-29T05:37:25;11.00;99.90
39493;DHT22;25176;51.060;3.720;2022-12-29T05:39:51;11.00;99.90
39493;DHT22;25176;51.060;3.720;2022-12-29T05:42:16;11.00;99.90
39493;DHT22;25176;51.060;3.720;2022-12-29T05:44:42;11.10;99.90
39493;DHT22;25176;51.060;3.720;2022-12-29T05:47:07;11.00;99.90
39493;DHT22;25176;51.060;3.720;2022-12-29T05:49:33;11.00;99.90
39493;DHT22;25176;51.060;3.720;2022-12-29T05:51:58;11.00;99.90
39493;DHT22;25176;51.060;3.720;2022-12-29T05:54:24;10.90;99.90
39493;DHT22;25176;51.060;3.720;2022-12-29T05:56:49;10.90;99.90
39493;DHT22;25176;51.060;3.720;2022-12-29T05:59:15;10.90;99.90
39493;DHT22;25176;51.060;3.720;2022-12-29T06:01:40;10.90;99.90
39493;DHT22;25176;51.060;3.720;2022-12-29T06:04:05;11.00;99.90
39493;DHT22;25176;51.060;3.720;2022-12-29T06:06:31;11.00;99.90
39493;DHT22;25176;51.060;3.720;2022-12-29T06:08:56;11.10;99.90
39493;DHT22;25176;51.060;3.720;2022-12-29T06:11:22;11.00;99.90
39493;DHT22;25176;51.060;3.720;2022-12-29T06:13:47;11.00;99.90
39493;DHT22;25176;51.060;3.720;2022-12-29T06:16:13;11.00;99.90
39493;DHT22;25176;51.060;3.720;2022-12-29T06:18:38;11.10;99.90
39493;DHT22;25176;51.060;3.720;2022-12-29T06:21:04;11.00;99.90
39493;DHT22;25176;51.060;3.720;2022-12-29T06:23:30;11.10;99.90
39493;DHT22;25176;51.060;3.720;2022-12-29T06:25:56;11.10;99.90
39493;DHT22;25176;51.060;3.720;2022-12-29T06:28:22;11.10;99.90
39493;DHT22;25176;51.060;3.720;2022-12-29T06:30:48;11.10;99.90
39493;DHT22;25176;51.060;3.720;2022-12-29T06:33:14;11.10;99.90
39493;DHT22;25176;51.060;3.720;2022-12-29T06:35:39;11.00;99.90
39493;DHT22;25176;51.060;3.720;2022-12-29T06:38:05;11.10;99.90
39493;DHT22;25176;51.060;3.720;2022-12-29T06:40:31;11.00;99.90
39493;DHT22;25176;51.060;3.720;2022-12-29T06:42:56;11.00;99.90
39493;DHT22;25176;51.060;3.720;2022-12-29T06:45:22;10.90;99.90
39493;DHT22;25176;51.060;3.720;2022-12-29T06:47:47;10.90;99.90
39493;DHT22;25176;51.060;3.720;2022-12-29T06:50:13;10.90;99.90
39493;DHT22;25176;51.060;3.720;2022-12-29T06:52:38;10.90;99.90
39493;DHT22;25176;51.060;3.720;2022-12-29T06:55:04;10.90;99.90
39493;DHT22;25176;51.060;3.720;2022-12-29T06:57:29;10.90;99.90
39493;DHT22;25176;51.060;3.720;2022-12-29T06:59:55;11.00;99.90
39493;DHT22;25176;51.060;3.720;2022-12-29T07:02:23;10.90;99.90
39493;DHT22;25176;51.060;3.720;2022-12-29T07:04:53;11.00;99.90
39493;DHT22;25176;51.060;3.720;2022-12-29T07:07:19;11.00;99.90
39493;DHT22;25176;51.060;3.720;2022-12-29T07:09:45;11.00;99.90
39493;DHT22;25176;51.060;3.720;2022-12-29T07:12:10;11.00;99.90
39493;DHT22;25176;51.060;3.720;2022-12-29T07:14:36;11.00;99.90
39493;DHT22;25176;51.060;3.720;2022-12-29T07:17:02;11.00;99.90
39493;DHT22;25176;51.060;3.720;2022-12-29T07:19:30;10.90;99.90
39493;DHT22;25176;51.060;3.720;2022-12-29T07:21:56;11.00;99.90
39493;DHT22;25176;51.060;3.720;2022-12-29T07:24:22;11.00;99.90
39493;DHT22;25176;51.060;3.720;2022-12-29T07:26:47;11.10;99.90
39493;DHT22;25176;51.060;3.720;2022-12-29T07:29:13;11.10;99.90
39493;DHT22;25176;51.060;3.720;2022-12-29T07:31:38;11.10;99.90
39493;DHT22;25176;51.060;3.720;2022-12-29T07:34:04;11.00;99.90
39493;DHT22;25176;51.060;3.720;2022-12-29T07:36:29;11.00;99.90
39493;DHT22;25176;51.060;3.720;2022-12-29T07:38:55;11.00;99.90
39493;DHT22;25176;51.060;3.720;2022-12-29T07:41:20;11.00;99.90
39493;DHT22;25176;51.060;3.720;2022-12-29T07:43:46;11.00;99.90
39493;DHT22;25176;51.060;3.720;2022-12-29T07:46:12;11.00;99.90
39493;DHT22;25176;51.060;3.720;2022-12-29T07:48:38;11.10;99.90
39493;DHT22;25176;51.060;3.720;2022-12-29T07:51:03;11.00;99.90
39493;DHT22;25176;51.060;3.720;2022-12-29T07:53:29;11.00;99.90
39493;DHT22;25176;51.060;3.720;2022-12-29T07:55:55;11.00;99.90
39493;DHT22;25176;51.060;3.720;2022-12-29T07:58:20;11.00;99.90
39493;DHT22;25176;51.060;3.720;2022-12-29T08:00:46;11.00;99.90
39493;DHT22;25176;51.060;3.720;2022-12-29T08:03:11;11.00;99.90
39493;DHT22;25176;51.060;3.720;2022-12-29T08:05:37;11.00;99.90
39493;DHT22;25176;51.060;3.720;2022-12-29T08:08:02;10.90;99.90
39493;DHT22;25176;51.060;3.720;2022-12-29T08:10:28;10.90;99.90
39493;DHT22;25176;51.060;3.720;2022-12-29T08:12:53;10.90;99.90
39493;DHT22;25176;51.060;3.720;2022-12-29T08:15:19;10.90;99.90
39493;DHT22;25176;51.060;3.720;2022-12-29T08:17:44;10.90;99.90
39493;DHT22;25176;51.060;3.720;2022-12-29T08:20:10;10.90;99.90
39493;DHT22;25176;51.060;3.720;2022-12-29T08:22:35;10.90;99.90
39493;DHT22;25176;51.060;3.720;2022-12-29T08:25:01;10.90;99.90
39493;DHT22;25176;51.060;3.720;2022-12-29T08:27:26;10.90;99.90
39493;DHT22;25176;51.060;3.720;2022-12-29T08:29:52;11.00;99.90
39493;DHT22;25176;51.060;3.720;2022-12-29T08:32:18;10.90;99.90
39493;DHT22;25176;51.060;3.720;2022-12-29T08:34:43;10.80;99.90
39493;DHT22;25176;51.060;3.720;2022-12-29T08:37:09;10.80;99.90
39493;DHT22;25176;51.060;3.720;2022-12-29T08:39:34;10.80;99.90
39493;DHT22;25176;51.060;3.720;2022-12-29T08:42:00;10.70;99.90
39493;DHT22;25176;51.060;3.720;2022-12-29T08:44:25;10.80;99.90
39493;DHT22;25176;51.060;3.720;2022-12-29T08:46:51;10.80;99.90
39493;DHT22;25176;51.060;3.720;2022-12-29T08:49:16;10.80;99.90
39493;DHT22;25176;51.060;3.720;2022-12-29T08:51:42;10.80;99.90
39493;DHT22;25176;51.060;3.720;2022-12-29T08:54:07;10.70;99.90
39493;DHT22;25176;51.060;3.720;2022-12-29T08:56:33;10.70;99.90
39493;DHT22;25176;51.060;3.720;2022-12-29T08:58:58;10.70;99.90
39493;DHT22;25176;51.060;3.720;2022-12-29T09:01:24;10.70;99.90
39493;DHT22;25176;51.060;3.720;2022-12-29T09:03:49;10.70;99.90
39493;DHT22;25176;51.060;3.720;2022-12-29T09:06:15;10.70;99.90
39493;DHT22;25176;51.060;3.720;2022-12-29T09:08:42;10.70;99.90
39493;DHT22;25176;51.060;3.720;2022-12-29T09:11:21;10.70;99.90
39493;DHT22;25176;51.060;3.720;2022-12-29T09:13:47;10.70;99.90
39493;DHT22;25176;51.060;3.720;2022-12-29T09:16:13;10.70;99.90
39493;DHT22;25176;51.060;3.720;2022-12-29T09:18:39;10.70;99.90
39493;DHT22;25176;51.060;3.720;2022-12-29T09:21:05;10.70;99.90
39493;DHT22;25176;51.060;3.720;2022-12-29T09:23:31;10.80;99.90
39493;DHT22;25176;51.060;3.720;2022-12-29T09:25:56;10.80;99.90
39493;DHT22;25176;51.060;3.720;2022-12-29T09:28:22;10.80;99.90
39493;DHT22;25176;51.060;3.720;2022-12-29T09:30:48;10.70;99.90
39493;DHT22;25176;51.060;3.720;2022-12-29T09:33:14;10.80;99.90
39493;DHT22;25176;51.060;3.720;2022-12-29T09:35:43;10.90;99.90
39493;DHT22;25176;51.060;3.720;2022-12-29T09:38:09;10.80;99.90
39493;DHT22;25176;51.060;3.720;2022-12-29T09:40:34;10.80;99.90
39493;DHT22;25176;51.060;3.720;2022-12-29T09:47:57;10.80;99.90
39493;DHT22;25176;51.060;3.720;2022-12-29T09:50:23;10.80;99.90
39493;DHT22;25176;51.060;3.720;2022-12-29T09:52:54;10.80;99.90
39493;DHT22;25176;51.060;3.720;2022-12-29T09:55:22;10.80;99.90
39493;DHT22;25176;51.060;3.720;2022-12-29T09:57:59;10.90;99.90
39493;DHT22;25176;51.060;3.720;2022-12-29T10:00:36;10.80;99.90
39493;DHT22;25176;51.060;3.720;2022-12-29T10:03:20;10.80;99.90
39493;DHT22;25176;51.060;3.720;2022-12-29T10:06:11;10.80;99.90
39493;DHT22;25176;51.060;3.720;2022-12-29T10:19:15;10.80;99.90
39493;DHT22;25176;51.060;3.720;2022-12-29T10:24:11;10.90;99.90
39493;DHT22;25176;51.060;3.720;2022-12-29T10:26:41;10.90;99.90
39493;DHT22;25176;51.060;3.720;2022-12-29T10:29:14;10.90;99.90
39493;DHT22;25176;51.060;3.720;2022-12-29T10:31:43;11.00;99.90
39493;DHT22;25176;51.060;3.720;2022-12-29T10:34:15;11.10;99.90
39493;DHT22;25176;51.060;3.720;2022-12-29T10:36:44;11.10;99.90
39493;DHT22;25176;51.060;3.720;2022-12-29T10:39:23;11.10;99.90
39493;DHT22;25176;51.060;3.720;2022-12-29T10:44:17;11.20;99.90
39493;DHT22;25176;51.060;3.720;2022-12-29T10:46:45;11.40;99.90
39493;DHT22;25176;51.060;3.720;2022-12-29T10:49:14;11.30;99.90
39493;DHT22;25176;51.060;3.720;2022-12-29T10:51:42;11.50;99.90
39493;DHT22;25176;51.060;3.720;2022-12-29T10:54:15;11.50;99.90
39493;DHT22;25176;51.060;3.720;2022-12-29T10:56:44;11.30;99.90
39493;DHT22;25176;51.060;3.720;2022-12-29T11:06:57;11.30;99.90
39493;DHT22;25176;51.060;3.720;2022-12-29T11:09:29;11.40;99.90
39493;DHT22;25176;51.060;3.720;2022-12-29T11:11:56;11.30;99.90
39493;DHT22;25176;51.060;3.720;2022-12-29T11:14:26;11.40;99.90
39493;DHT22;25176;51.060;3.720;2022-12-29T11:16:59;11.40;99.90
39493;DHT22;25176;51.060;3.720;2022-12-29T11:19:26;11.60;99.90
39493;DHT22;25176;51.060;3.720;2022-12-29T11:21:52;11.70;99.90
39493;DHT22;25176;51.060;3.720;2022-12-29T11:24:27;11.80;99.90
39493;DHT22;25176;51.060;3.720;2022-12-29T11:26:54;11.80;99.90
39493;DHT22;25176;51.060;3.720;2022-12-29T11:29:26;11.90;99.90
39493;DHT22;25176;51.060;3.720;2022-12-29T11:31:53;11.80;99.90
39493;DHT22;25176;51.060;3.720;2022-12-29T11:36:45;11.70;99.90
39493;DHT22;25176;51.060;3.720;2022-12-29T11:39:30;11.70;99.90
39493;DHT22;25176;51.060;3.720;2022-12-29T11:41:57;11.60;99.90
39493;DHT22;25176;51.060;3.720;2022-12-29T11:44:22;11.50;99.90
39493;DHT22;25176;51.060;3.720;2022-12-29T11:46:49;11.40;99.90
39493;DHT22;25176;51.060;3.720;2022-12-29T11:49:24;11.30;99.90
39493;DHT22;25176;51.060;3.720;2022-12-29T11:51:51;11.20;99.90
39493;DHT22;25176;51.060;3.720;2022-12-29T11:54:29;11.10;99.90
39493;DHT22;25176;51.060;3.720;2022-12-29T11:56:56;11.00;99.90
39493;DHT22;25176;51.060;3.720;2022-12-29T12:02:16;11.00;99.90
39493;DHT22;25176;51.060;3.720;2022-12-29T12:04:45;11.00;99.90
39493;DHT22;25176;51.060;3.720;2022-12-29T12:07:12;11.00;99.90
39493;DHT22;25176;51.060;3.720;2022-12-29T12:09:49;11.10;99.90
39493;DHT22;25176;51.060;3.720;2022-12-29T12:12:21;11.10;99.90
39493;DHT22;25176;51.060;3.720;2022-12-29T12:14:55;11.10;99.90
39493;DHT22;25176;51.060;3.720;2022-12-29T12:17:47;11.10;99.90
39493;DHT22;25176;51.060;3.720;2022-12-29T12:22:45;11.00;99.90
39493;DHT22;25176;51.060;3.720;2022-12-29T12:25:25;11.10;99.90
39493;DHT22;25176;51.060;3.720;2022-12-29T12:27:59;11.20;99.90
39493;DHT22;25176;51.060;3.720;2022-12-29T12:30:27;11.30;99.90
39493;DHT22;25176;51.060;3.720;2022-12-29T12:35:32;11.20;99.90
39493;DHT22;25176;51.060;3.720;2022-12-29T12:40:37;11.30;99.90
39493;DHT22;25176;51.060;3.720;2022-12-29T12:43:08;11.40;99.90
39493;DHT22;25176;51.060;3.720;2022-12-29T13:01:07;11.10;99.90
39493;DHT22;25176;51.060;3.720;2022-12-29T13:11:37;11.10;99.90
39493;DHT22;25176;51.060;3.720;2022-12-29T13:19:52;11.10;99.90
39493;DHT22;25176;51.060;3.720;2022-12-29T13:37:14;10.80;99.90
39493;DHT22;25176;51.060;3.720;2022-12-29T13:39:51;10.80;99.90
39493;DHT22;25176;51.060;3.720;2022-12-29T13:42:18;10.80;99.90
39493;DHT22;25176;51.060;3.720;2022-12-29T13:44:45;10.70;99.90
39493;DHT22;25176;51.060;3.720;2022-12-29T13:47:18;10.80;99.90
39493;DHT22;25176;51.060;3.720;2022-12-29T13:49:46;10.80;99.90
39493;DHT22;25176;51.060;3.720;2022-12-29T13:52:20;11.00;99.90
39493;DHT22;25176;51.060;3.720;2022-12-29T13:54:57;11.00;99.90
39493;DHT22;25176;51.060;3.720;2022-12-29T14:02:42;10.90;99.90
39493;DHT22;25176;51.060;3.720;2022-12-29T14:07:43;10.80;99.90
39493;DHT22;25176;51.060;3.720;2022-12-29T14:13:00;10.70;99.90
39493;DHT22;25176;51.060;3.720;2022-12-29T14:15:27;10.60;99.90
39493;DHT22;25176;51.060;3.720;2022-12-29T14:18:00;10.60;99.90
39493;DHT22;25176;51.060;3.720;2022-12-29T14:20:26;10.50;99.90
39493;DHT22;25176;51.060;3.720;2022-12-29T14:23:52;10.60;99.90
39493;DHT22;25176;51.060;3.720;2022-12-29T14:28:34;10.40;99.90
39493;DHT22;25176;51.060;3.720;2022-12-29T14:31:00;10.50;99.90
39493;DHT22;25176;51.060;3.720;2022-12-29T14:33:27;10.50;99.90
39493;DHT22;25176;51.060;3.720;2022-12-29T14:35:53;10.50;99.90
39493;DHT22;25176;51.060;3.720;2022-12-29T14:38:21;10.40;99.90
39493;DHT22;25176;51.060;3.720;2022-12-29T14:40:47;10.50;99.90
39493;DHT22;25176;51.060;3.720;2022-12-29T14:43:16;10.60;99.90
39493;DHT22;25176;51.060;3.720;2022-12-29T14:45:42;10.50;99.90
39493;DHT22;25176;51.060;3.720;2022-12-29T14:50:52;10.40;99.90
39493;DHT22;25176;51.060;3.720;2022-12-29T14:56:02;10.30;99.90
39493;DHT22;25176;51.060;3.720;2022-12-29T15:00:53;10.20;99.90
39493;DHT22;25176;51.060;3.720;2022-12-29T15:03:20;10.30;99.90
39493;DHT22;25176;51.060;3.720;2022-12-29T15:05:49;10.20;99.90
39493;DHT22;25176;51.060;3.720;2022-12-29T15:08:16;10.30;99.90
39493;DHT22;25176;51.060;3.720;2022-12-29T15:10:47;10.30;99.90
39493;DHT22;25176;51.060;3.720;2022-12-29T15:13:14;10.30;99.90
39493;DHT22;25176;51.060;3.720;2022-12-29T15:15:40;10.30;99.90
39493;DHT22;25176;51.060;3.720;2022-12-29T15:18:22;10.30;99.90
39493;DHT22;25176;51.060;3.720;2022-12-29T15:21:02;10.30;99.90
39493;DHT22;25176;51.060;3.720;2022-12-29T15:23:29;10.30;99.90
39493;DHT22;25176;51.060;3.720;2022-12-29T15:25:59;10.30;99.90
39493;DHT22;25176;51.060;3.720;2022-12-29T15:28:25;10.30;99.90
39493;DHT22;25176;51.060;3.720;2022-12-29T15:31:27;10.30;99.90
39493;DHT22;25176;51.060;3.720;2022-12-29T15:33:41;10.20;99.90
39493;DHT22;25176;51.060;3.720;2022-12-29T15:36:11;10.20;99.90
39493;DHT22;25176;51.060;3.720;2022-12-29T15:38:37;10.10;99.90
39493;DHT22;25176;51.060;3.720;2022-12-29T15:41:11;10.00;99.90
39493;DHT22;25176;51.060;3.720;2022-12-29T15:46:27;9.90;99.90
39493;DHT22;25176;51.060;3.720;2022-12-29T15:48:55;9.90;99.90
39493;DHT22;25176;51.060;3.720;2022-12-29T15:51:23;9.90;99.90
39493;DHT22;25176;51.060;3.720;2022-12-29T15:53:50;9.90;99.90
39493;DHT22;25176;51.060;3.720;2022-12-29T15:56:16;9.90;99.90
39493;DHT22;25176;51.060;3.720;2022-12-29T15:58:46;9.90;99.90
39493;DHT22;25176;51.060;3.720;2022-12-29T16:01:27;9.90;99.90
39493;DHT22;25176;51.060;3.720;2022-12-29T16:03:54;9.90;99.90
39493;DHT22;25176;51.060;3.720;2022-12-29T16:08:58;9.80;99.90
39493;DHT22;25176;51.060;3.720;2022-12-29T16:11:40;9.70;99.90
39493;DHT22;25176;51.060;3.720;2022-12-29T16:14:15;9.70;99.90
39493;DHT22;25176;51.060;3.720;2022-12-29T16:16:42;9.60;99.90
39493;DHT22;25176;51.060;3.720;2022-12-29T16:21:46;9.50;99.90
39493;DHT22;25176;51.060;3.720;2022-12-29T16:24:12;9.50;99.90
39493;DHT22;25176;51.060;3.720;2022-12-29T16:26:39;9.50;99.90
39493;DHT22;25176;51.060;3.720;2022-12-29T16:29:05;9.50;99.90
39493;DHT22;25176;51.060;3.720;2022-12-29T16:33:57;9.50;99.90
39493;DHT22;25176;51.060;3.720;2022-12-29T16:36:30;9.50;99.90
39493;DHT22;25176;51.060;3.720;2022-12-29T16:41:40;9.40;99.90
39493;DHT22;25176;51.060;3.720;2022-12-29T16:47:00;9.40;99.90
39493;DHT22;25176;51.060;3.720;2022-12-29T16:49:26;9.30;99.90
39493;DHT22;25176;51.060;3.720;2022-12-29T16:51:53;9.30;99.90
39493;DHT22;25176;51.060;3.720;2022-12-29T16:54:21;9.30;99.90
39493;DHT22;25176;51.060;3.720;2022-12-29T16:56:48;9.20;99.90
39493;DHT22;25176;51.060;3.720;2022-12-29T16:59:27;9.30;99.90
39493;DHT22;25176;51.060;3.720;2022-12-29T17:01:56;9.20;99.90
39493;DHT22;25176;51.060;3.720;2022-12-29T17:04:22;9.20;99.90
39493;DHT22;25176;51.060;3.720;2022-12-29T17:06:47;9.30;99.90
39493;DHT22;25176;51.060;3.720;2022-12-29T17:09:17;9.20;99.90
39493;DHT22;25176;51.060;3.720;2022-12-29T17:11:43;9.30;99.90
39493;DHT22;25176;51.060;3.720;2022-12-29T17:16:45;9.30;99.90
39493;DHT22;25176;51.060;3.720;2022-12-29T17:19:15;9.20;99.90
39493;DHT22;25176;51.060;3.720;2022-12-29T17:21:41;9.20;99.90
39493;DHT22;25176;51.060;3.720;2022-12-29T17:24:11;9.30;99.90
39493;DHT22;25176;51.060;3.720;2022-12-29T17:26:38;9.20;99.90
39493;DHT22;25176;51.060;3.720;2022-12-29T17:29:03;9.20;99.90
39493;DHT22;25176;51.060;3.720;2022-12-29T17:31:29;9.30;99.90
39493;DHT22;25176;51.060;3.720;2022-12-29T17:33:54;9.20;99.90
39493;DHT22;25176;51.060;3.720;2022-12-29T17:36:21;9.20;99.90
39493;DHT22;25176;51.060;3.720;2022-12-29T17:38:46;9.20;99.90
39493;DHT22;25176;51.060;3.720;2022-12-29T17:41:13;9.30;99.90
39493;DHT22;25176;51.060;3.720;2022-12-29T17:43:39;9.30;99.90
39493;DHT22;25176;51.060;3.720;2022-12-29T17:46:05;9.20;99.90
39493;DHT22;25176;51.060;3.720;2022-12-29T17:48:31;9.30;99.90
39493;DHT22;25176;51.060;3.720;2022-12-29T17:50:56;9.30;99.90
39493;DHT22;25176;51.060;3.720;2022-12-29T17:53:23;9.20;99.90
39493;DHT22;25176;51.060;3.720;2022-12-29T17:55:49;9.30;99.90
39493;DHT22;25176;51.060;3.720;2022-12-29T18:00:43;9.40;99.90
39493;DHT22;25176;51.060;3.720;2022-12-29T18:03:31;9.40;99.90
39493;DHT22;25176;51.060;3.720;2022-12-29T18:05:55;9.40;99.90
39493;DHT22;25176;51.060;3.720;2022-12-29T18:08:20;9.40;99.90
39493;DHT22;25176;51.060;3.720;2022-12-29T18:10:46;9.40;99.90
39493;DHT22;25176;51.060;3.720;2022-12-29T18:13:24;9.40;99.90
39493;DHT22;25176;51.060;3.720;2022-12-29T18:15:50;9.30;99.90
39493;DHT22;25176;51.060;3.720;2022-12-29T18:18:17;9.30;99.90
39493;DHT22;25176;51.060;3.720;2022-12-29T18:20:43;9.30;99.90
39493;DHT22;25176;51.060;3.720;2022-12-29T18:23:26;9.40;99.90